Time;durP1;ratioP1;P1;durP2;ratioP2;P2;SDS_P1;SDS_P2;PMS_P1;PMS_P2;Temp;Humidity;BMP_temperature;BMP_pressure;BME280_temperature;BME280_humidity;BME280_pressure;Samples;Min_cycle;Max_cycle;Signal;HPM_P1;HPM_P2
2022/05/15 00:00:59;;;;;;;0.30;0.30;;;12.10;99.90;;;;;;5034655;28;20221;-71
2022/05/15 00:03:25;;;;;;;0.30;0.30;;;12.10;99.90;;;;;;5034323;28;20814;-71
2022/05/15 00:05:57;;;;;;;0.30;0.30;;;12.10;99.90;;;;;;5034205;28;20451;-71
2022/05/15 00:08:24;;;;;;;0.30;0.30;;;12.10;99.90;;;;;;5034165;28;20850;-70
2022/05/15 00:10:51;;;;;;;0.40;0.40;;;12.10;99.90;;;;;;5033972;28;20447;-70
2022/05/15 00:13:18;;;;;;;0.30;0.30;;;12.00;99.90;;;;;;5034142;28;20175;-70
2022/05/15 00:15:44;;;;;;;0.30;0.30;;;12.10;99.90;;;;;;5034138;28;20459;-70
2022/05/15 00:18:10;;;;;;;0.30;0.30;;;12.00;99.90;;;;;;5033923;28;20198;-71
2022/05/15 00:20:39;;;;;;;0.30;0.30;;;12.10;99.90;;;;;;5034082;28;20630;-70
2022/05/15 00:23:06;;;;;;;0.30;0.30;;;12.10;99.90;;;;;;5033916;28;20179;-72
2022/05/15 00:25:31;;;;;;;0.30;0.30;;;12.10;99.90;;;;;;5033931;28;20262;-72
2022/05/15 00:27:58;;;;;;;0.30;0.30;;;12.00;99.90;;;;;;5034041;28;20520;-71
2022/05/15 00:30:24;;;;;;;0.60;0.60;;;12.00;99.90;;;;;;5033835;28;20170;-71
2022/05/15 00:32:50;;;;;;;0.40;0.40;;;12.00;99.90;;;;;;5033688;28;20170;-71
2022/05/15 00:35:17;;;;;;;0.30;0.30;;;11.90;99.90;;;;;;5033932;28;20531;-71
2022/05/15 00:37:42;;;;;;;0.30;0.30;;;12.00;99.90;;;;;;5033688;28;20429;-70
2022/05/15 00:40:09;;;;;;;0.40;0.40;;;11.90;99.90;;;;;;5033734;28;20425;-69
2022/05/15 00:42:35;;;;;;;0.30;0.30;;;11.90;99.90;;;;;;5033958;28;20249;-70
2022/05/15 00:45:02;;;;;;;0.30;0.30;;;11.90;99.90;;;;;;5033727;28;20415;-69
2022/05/15 00:47:28;;;;;;;0.30;0.30;;;11.80;99.90;;;;;;5033739;28;20476;-71
2022/05/15 00:49:54;;;;;;;0.30;0.30;;;11.80;99.90;;;;;;5033598;28;20925;-70
2022/05/15 00:52:25;;;;;;;0.30;0.30;;;11.90;99.90;;;;;;5031447;28;20391;-71
2022/05/15 00:54:57;;;;;;;0.30;0.30;;;11.80;99.90;;;;;;5033826;28;20773;-71
2022/05/15 00:57:30;;;;;;;1.10;1.10;;;11.80;99.90;;;;;;5033833;28;20405;-71
2022/05/15 01:00:09;;;;;;;0.40;0.40;;;11.90;99.90;;;;;;5033516;28;20392;-70
2022/05/15 01:02:43;;;;;;;0.30;0.30;;;11.90;99.90;;;;;;5033422;28;20907;-70
2022/05/15 01:05:14;;;;;;;0.47;0.47;;;11.90;99.90;;;;;;5033654;28;20745;-72
2022/05/15 01:07:40;;;;;;;0.30;0.30;;;11.80;99.90;;;;;;5033495;28;20435;-71
2022/05/15 01:10:08;;;;;;;0.30;0.30;;;11.90;99.90;;;;;;5033813;28;20853;-72
2022/05/15 01:12:35;;;;;;;0.50;0.50;;;11.80;99.90;;;;;;5031954;28;20487;-71
2022/05/15 01:15:01;;;;;;;0.30;0.30;;;11.80;99.90;;;;;;5033543;28;20771;-72
2022/05/15 01:17:27;;;;;;;0.30;0.30;;;11.80;99.90;;;;;;5033361;28;20190;-71
2022/05/15 01:20:02;;;;;;;0.30;0.30;;;11.80;99.90;;;;;;5033377;28;20417;-70
2022/05/15 01:22:28;;;;;;;0.30;0.30;;;11.90;99.90;;;;;;5033362;28;20551;-72
2022/05/15 01:24:53;;;;;;;0.30;0.30;;;11.80;99.90;;;;;;5033308;28;20406;-70
2022/05/15 01:27:19;;;;;;;0.30;0.30;;;11.80;99.90;;;;;;5033508;28;20171;-71
2022/05/15 01:29:46;;;;;;;0.40;0.40;;;11.90;99.90;;;;;;5033257;28;20205;-71
2022/05/15 01:32:13;;;;;;;0.30;0.30;;;11.80;99.90;;;;;;5033084;28;20195;-69
2022/05/15 01:34:40;;;;;;;0.93;0.93;;;11.80;99.90;;;;;;5031853;28;20914;-71
2022/05/15 01:37:07;;;;;;;0.30;0.30;;;11.80;99.90;;;;;;5033488;28;20404;-71
2022/05/15 01:39:33;;;;;;;0.30;0.30;;;11.80;99.90;;;;;;5033123;28;20754;-70
2022/05/15 01:41:59;;;;;;;0.30;0.30;;;11.80;99.90;;;;;;5033270;28;20409;-70
2022/05/15 01:44:25;;;;;;;0.30;0.30;;;11.70;99.90;;;;;;5033227;28;20398;-70
2022/05/15 01:46:51;;;;;;;0.30;0.30;;;11.70;99.90;;;;;;5033149;28;20401;-71
2022/05/15 01:49:17;;;;;;;1.00;1.00;;;11.70;99.90;;;;;;5032929;28;20422;-70
2022/05/15 01:51:44;;;;;;;0.30;0.30;;;11.60;99.90;;;;;;5032990;28;20195;-70
2022/05/15 01:54:10;;;;;;;0.30;0.30;;;11.70;99.90;;;;;;5032950;28;20559;-71
2022/05/15 01:56:36;;;;;;;0.30;0.30;;;11.70;99.90;;;;;;5033040;28;20418;-72
2022/05/15 01:59:04;;;;;;;0.30;0.30;;;11.70;99.90;;;;;;5032819;28;20214;-69
2022/05/15 02:01:29;;;;;;;0.30;0.30;;;11.60;99.90;;;;;;5032911;28;20167;-71
2022/05/15 02:03:55;;;;;;;0.30;0.30;;;11.70;99.90;;;;;;5035056;28;20179;-70
2022/05/15 02:06:21;;;;;;;0.30;0.30;;;11.70;99.90;;;;;;5036760;28;20179;-70
2022/05/15 02:08:48;;;;;;;0.30;0.30;;;11.60;99.90;;;;;;5036442;28;20194;-69
2022/05/15 02:11:14;;;;;;;0.30;0.30;;;11.50;99.90;;;;;;5036593;28;20298;-71
2022/05/15 02:13:40;;;;;;;0.30;0.30;;;11.50;99.90;;;;;;5034915;28;20174;-71
2022/05/15 02:16:05;;;;;;;0.30;0.30;;;11.50;99.90;;;;;;5036372;28;20398;-71
2022/05/15 02:18:31;;;;;;;0.30;0.30;;;11.50;99.90;;;;;;5036248;28;20666;-71
2022/05/15 02:20:57;;;;;;;0.30;0.30;;;11.50;99.90;;;;;;5036307;28;20270;-70
2022/05/15 02:23:22;;;;;;;0.50;0.50;;;11.50;99.90;;;;;;5034932;28;20578;-72
2022/05/15 02:25:48;;;;;;;0.30;0.30;;;11.50;99.90;;;;;;5036420;28;20183;-70
2022/05/15 02:28:14;;;;;;;0.30;0.30;;;11.60;99.90;;;;;;5036092;28;20199;-72
2022/05/15 02:30:39;;;;;;;0.30;0.30;;;11.60;99.90;;;;;;5035988;28;20228;-69
2022/05/15 02:33:05;;;;;;;0.30;0.30;;;11.60;99.90;;;;;;5036262;28;20531;-70
2022/05/15 02:35:31;;;;;;;0.30;0.30;;;11.60;99.90;;;;;;5036431;28;20185;-69
2022/05/15 02:37:57;;;;;;;0.30;0.30;;;11.50;99.90;;;;;;5034602;28;20956;-70
2022/05/15 02:40:23;;;;;;;0.30;0.30;;;11.50;99.90;;;;;;5035931;28;20438;-69
2022/05/15 02:42:49;;;;;;;0.30;0.30;;;11.50;99.90;;;;;;5035821;28;20174;-69
2022/05/15 02:45:15;;;;;;;1.60;0.63;;;11.50;99.90;;;;;;5035810;28;20177;-71
2022/05/15 02:47:42;;;;;;;0.30;0.30;;;11.50;99.90;;;;;;5035672;28;20520;-69
2022/05/15 02:52:53;;;;;;;0.30;0.30;;;11.50;99.90;;;;;;5036016;28;20185;-69
2022/05/15 02:55:21;;;;;;;0.30;0.30;;;11.40;99.90;;;;;;5035820;28;20187;-71
2022/05/15 02:57:47;;;;;;;0.30;0.30;;;11.50;99.90;;;;;;5035763;28;20647;-69
2022/05/15 03:00:14;;;;;;;0.40;0.40;;;11.40;99.90;;;;;;5034273;28;20166;-71
2022/05/15 03:02:40;;;;;;;0.30;0.30;;;11.40;99.90;;;;;;5035342;28;20171;-69
2022/05/15 03:05:09;;;;;;;0.30;0.30;;;11.40;99.90;;;;;;5035583;28;20543;-72
2022/05/15 03:07:36;;;;;;;0.30;0.30;;;11.40;99.90;;;;;;5035564;28;20557;-72
2022/05/15 03:10:03;;;;;;;0.30;0.30;;;11.50;99.90;;;;;;5035302;28;20174;-69
2022/05/15 03:12:29;;;;;;;0.30;0.30;;;11.40;99.90;;;;;;5035099;28;20564;-71
2022/05/15 03:14:54;;;;;;;0.30;0.30;;;11.50;99.90;;;;;;5034440;28;20163;-70
2022/05/15 03:17:21;;;;;;;0.30;0.30;;;11.40;99.90;;;;;;5035393;28;20175;-70
2022/05/15 03:19:47;;;;;;;0.50;0.50;;;11.50;99.90;;;;;;5035269;28;20174;-70
2022/05/15 03:22:12;;;;;;;0.30;0.30;;;11.50;99.90;;;;;;5035163;28;20586;-70
2022/05/15 03:24:38;;;;;;;0.30;0.30;;;11.50;99.90;;;;;;5035142;28;20409;-70
2022/05/15 03:27:04;;;;;;;0.30;0.30;;;11.50;99.90;;;;;;5035047;28;20261;-70
2022/05/15 03:29:30;;;;;;;0.30;0.30;;;11.40;99.90;;;;;;5034704;28;20245;-71
2022/05/15 03:31:56;;;;;;;0.30;0.30;;;11.40;99.90;;;;;;5033709;28;20829;-70
2022/05/15 03:34:22;;;;;;;0.40;0.40;;;11.40;99.90;;;;;;5034894;28;20257;-71
2022/05/15 03:36:51;;;;;;;0.30;0.30;;;11.40;99.90;;;;;;5034940;28;20258;-71
2022/05/15 03:39:19;;;;;;;0.30;0.30;;;11.40;99.90;;;;;;5034697;28;20191;-72
2022/05/15 03:41:49;;;;;;;0.30;0.30;;;11.40;99.90;;;;;;5034765;28;20186;-71
2022/05/15 03:44:15;;;;;;;0.30;0.30;;;11.40;99.90;;;;;;5034489;28;20175;-69
2022/05/15 03:46:41;;;;;;;0.30;0.30;;;11.40;99.90;;;;;;5034684;28;20185;-69
2022/05/15 03:49:07;;;;;;;1.42;1.40;;;11.40;99.90;;;;;;5034560;28;20427;-72
2022/05/15 03:51:33;;;;;;;0.30;0.30;;;11.40;99.90;;;;;;5034476;28;20199;-72
2022/05/15 03:53:59;;;;;;;0.30;0.30;;;11.40;99.90;;;;;;5034156;28;20410;-71
2022/05/15 03:59:12;;;;;;;0.40;0.40;;;11.40;99.90;;;;;;5034743;28;20620;-69
2022/05/15 04:01:38;;;;;;;0.30;0.30;;;11.50;99.90;;;;;;5034448;28;20578;-70
2022/05/15 04:04:04;;;;;;;0.30;0.30;;;11.40;99.90;;;;;;5034304;28;20178;-71
2022/05/15 04:06:29;;;;;;;0.30;0.30;;;11.40;99.90;;;;;;5034216;28;20262;-70
2022/05/15 04:08:55;;;;;;;0.30;0.30;;;11.40;99.90;;;;;;5034310;28;20256;-70
2022/05/15 04:11:21;;;;;;;0.30;0.30;;;11.40;99.90;;;;;;5034201;28;20205;-69
2022/05/15 04:13:46;;;;;;;0.30;0.30;;;11.50;99.90;;;;;;5033921;28;20182;-70
2022/05/15 04:16:13;;;;;;;0.30;0.30;;;11.60;99.90;;;;;;5034121;28;20531;-71
2022/05/15 04:18:39;;;;;;;0.40;0.40;;;11.60;99.90;;;;;;5033952;28;20190;-72
2022/05/15 04:21:05;;;;;;;0.30;0.30;;;11.70;99.90;;;;;;5033803;28;20186;-71
2022/05/15 04:23:31;;;;;;;0.73;0.73;;;11.70;99.90;;;;;;5033833;28;20171;-70
2022/05/15 04:25:57;;;;;;;0.30;0.30;;;11.80;99.90;;;;;;5034051;28;20416;-71
2022/05/15 04:28:22;;;;;;;0.30;0.30;;;11.90;99.90;;;;;;5033784;28;20197;-71
2022/05/15 04:30:48;;;;;;;0.30;0.30;;;11.90;99.90;;;;;;5033805;28;20260;-71
2022/05/15 04:33:14;;;;;;;0.30;0.30;;;11.90;99.90;;;;;;5033147;28;20982;-71
2022/05/15 04:35:40;;;;;;;0.40;0.40;;;11.90;99.90;;;;;;5034002;28;20407;-70
2022/05/15 04:38:08;;;;;;;0.30;0.30;;;12.00;99.90;;;;;;5033681;28;20429;-71
2022/05/15 04:40:33;;;;;;;0.30;0.30;;;12.00;99.90;;;;;;5033746;28;20531;-72
2022/05/15 04:42:59;;;;;;;0.30;0.30;;;12.10;99.90;;;;;;5033562;28;20401;-70
2022/05/15 04:45:25;;;;;;;0.30;0.30;;;12.20;99.90;;;;;;5033747;28;20167;-70
2022/05/15 04:47:50;;;;;;;0.30;0.30;;;12.40;99.90;;;;;;5033722;28;20230;-72
2022/05/15 04:50:18;;;;;;;0.40;0.40;;;12.80;99.90;;;;;;5032296;28;20185;-71
2022/05/15 04:52:44;;;;;;;0.30;0.30;;;13.00;99.90;;;;;;5033530;28;20733;-69
2022/05/15 04:55:11;;;;;;;0.47;0.47;;;13.40;99.90;;;;;;5033619;28;20397;-72
2022/05/15 04:57:37;;;;;;;0.30;0.30;;;13.90;99.90;;;;;;5033622;28;20425;-73
2022/05/15 05:00:06;;;;;;;0.40;0.40;;;14.50;99.90;;;;;;5033510;28;20959;-72
2022/05/15 05:02:31;;;;;;;0.30;0.30;;;15.20;99.80;;;;;;5033344;28;20171;-71
2022/05/15 05:04:59;;;;;;;0.30;0.30;;;15.60;97.90;;;;;;5033354;28;20890;-71
2022/05/15 05:07:28;;;;;;;0.40;0.40;;;16.10;97.90;;;;;;5033370;28;20192;-73
2022/05/15 05:09:54;;;;;;;1.00;1.00;;;16.40;97.00;;;;;;5033331;28;20818;-71
2022/05/15 05:12:21;;;;;;;0.53;0.53;;;16.50;96.70;;;;;;5033111;28;20802;-70
2022/05/15 05:14:46;;;;;;;0.30;0.30;;;16.70;96.30;;;;;;5033486;28;20405;-72
2022/05/15 05:17:13;;;;;;;0.40;0.40;;;16.80;96.20;;;;;;5032885;28;20921;-67
2022/05/15 05:19:38;;;;;;;0.30;0.30;;;16.90;96.10;;;;;;5031975;28;20704;-67
2022/05/15 05:22:04;;;;;;;0.30;0.30;;;16.80;95.80;;;;;;5032770;28;20409;-68
2022/05/15 05:24:30;;;;;;;0.30;0.30;;;16.60;95.80;;;;;;5032048;28;20194;-67
2022/05/15 05:26:56;;;;;;;0.30;0.30;;;16.30;96.20;;;;;;5032347;28;20452;-71
2022/05/15 05:29:22;;;;;;;0.30;0.30;;;16.00;96.10;;;;;;5032670;28;20187;-72
2022/05/15 05:31:49;;;;;;;0.30;0.30;;;16.10;96.70;;;;;;5033794;28;20203;-71
2022/05/15 05:34:15;;;;;;;0.30;0.30;;;16.40;97.20;;;;;;5033024;28;20406;-73
2022/05/15 05:36:41;;;;;;;0.53;0.53;;;16.70;95.50;;;;;;5033374;28;20394;-71
2022/05/15 05:39:07;;;;;;;0.57;0.57;;;17.00;95.10;;;;;;5036179;28;20433;-72
2022/05/15 05:41:33;;;;;;;0.30;0.30;;;17.30;95.10;;;;;;5037449;28;20402;-70
2022/05/15 05:44:00;;;;;;;0.50;0.50;;;17.60;95.50;;;;;;5037031;28;20408;-71
2022/05/15 05:46:27;;;;;;;0.30;0.30;;;18.00;95.10;;;;;;5037329;28;20170;-72
2022/05/15 05:48:53;;;;;;;0.30;0.30;;;18.20;94.50;;;;;;5037006;28;20437;-71
2022/05/15 05:51:18;;;;;;;1.13;1.03;;;18.60;93.60;;;;;;5037061;28;20555;-72
2022/05/15 05:53:44;;;;;;;0.30;0.30;;;18.90;92.60;;;;;;5037098;28;20401;-70
2022/05/15 05:56:10;;;;;;;0.30;0.30;;;19.20;92.40;;;;;;5037147;28;20332;-71
2022/05/15 05:58:37;;;;;;;0.30;0.30;;;19.50;92.10;;;;;;5036778;28;20609;-72
2022/05/15 06:01:03;;;;;;;0.30;0.30;;;19.70;91.60;;;;;;5037316;28;20204;-71
2022/05/15 06:06:13;;;;;;;0.30;0.30;;;20.00;91.30;;;;;;5036133;28;20465;-71
2022/05/15 06:08:40;;;;;;;0.40;0.40;;;20.30;91.20;;;;;;5033432;28;20438;-71
2022/05/15 06:11:05;;;;;;;0.30;0.30;;;20.70;91.30;;;;;;5035536;28;20198;-72
2022/05/15 06:13:31;;;;;;;0.30;0.30;;;21.60;90.40;;;;;;5035678;28;20800;-71
2022/05/15 06:15:57;;;;;;;0.60;0.60;;;22.50;88.70;;;;;;5035845;28;20384;-71
2022/05/15 06:18:23;;;;;;;0.40;0.40;;;23.50;85.80;;;;;;5035652;28;20191;-71
2022/05/15 06:20:49;;;;;;;0.43;0.43;;;25.00;79.60;;;;;;5035594;28;20428;-73
2022/05/15 06:23:14;;;;;;;0.40;0.40;;;26.80;72.60;;;;;;5035968;28;20163;-72
2022/05/15 06:25:40;;;;;;;0.40;0.40;;;28.40;66.70;;;;;;5036075;28;20224;-71
2022/05/15 06:28:06;;;;;;;0.60;0.60;;;29.90;60.20;;;;;;5036148;28;20195;-73
2022/05/15 06:30:32;;;;;;;0.40;0.40;;;31.00;56.30;;;;;;5036135;28;20163;-71
2022/05/15 06:32:59;;;;;;;0.60;0.60;;;31.80;53.60;;;;;;5035860;28;20932;-73
2022/05/15 06:35:25;;;;;;;0.40;0.40;;;32.80;50.80;;;;;;5036128;28;20170;-74
2022/05/15 06:37:51;;;;;;;0.43;0.43;;;33.70;48.30;;;;;;5036020;28;20422;-71
2022/05/15 06:40:17;;;;;;;0.93;0.93;;;34.60;46.90;;;;;;5035984;28;20409;-73
2022/05/15 06:42:43;;;;;;;0.40;0.40;;;35.30;45.40;;;;;;5035895;28;20182;-73
2022/05/15 06:45:10;;;;;;;0.40;0.30;;;35.50;42.30;;;;;;5035836;28;20401;-72
2022/05/15 06:47:36;;;;;;;0.60;0.60;;;35.20;40.80;;;;;;5035974;28;20425;-73
2022/05/15 06:50:04;;;;;;;1.33;0.60;;;35.00;41.60;;;;;;5034519;28;20512;-72
2022/05/15 06:52:29;;;;;;;0.40;0.40;;;34.60;41.80;;;;;;5035608;28;20194;-72
2022/05/15 06:54:55;;;;;;;0.50;0.50;;;34.40;43.50;;;;;;5035555;28;20468;-73
2022/05/15 06:57:30;;;;;;;0.30;0.30;;;34.40;42.80;;;;;;5035496;28;20175;-73
2022/05/15 07:00:03;;;;;;;0.30;0.30;;;34.80;42.80;;;;;;5035636;28;20197;-73
2022/05/15 07:02:29;;;;;;;0.30;0.30;;;35.30;41.10;;;;;;5035468;28;20417;-74
2022/05/15 07:04:56;;;;;;;0.40;0.30;;;35.40;37.70;;;;;;5035263;28;20420;-71
2022/05/15 07:07:21;;;;;;;0.30;0.30;;;34.60;37.00;;;;;;5034803;28;20424;-68
2022/05/15 07:09:47;;;;;;;0.50;0.50;;;34.30;41.10;;;;;;5035036;28;20512;-70
2022/05/15 07:12:13;;;;;;;0.60;0.53;;;34.20;42.70;;;;;;5034709;28;20199;-70
2022/05/15 07:14:39;;;;;;;0.30;0.30;;;34.10;42.00;;;;;;5035326;28;20174;-69
2022/05/15 07:17:05;;;;;;;0.63;0.60;;;34.50;42.60;;;;;;5035129;28;20493;-69
2022/05/15 07:19:31;;;;;;;0.30;0.30;;;34.80;40.80;;;;;;5035048;28;20437;-71
2022/05/15 07:21:57;;;;;;;0.60;0.60;;;35.50;40.00;;;;;;5035364;28;20417;-72
2022/05/15 07:24:23;;;;;;;0.40;0.40;;;35.90;36.50;;;;;;5035085;28;20189;-71
2022/05/15 07:26:50;;;;;;;0.60;0.50;;;36.40;37.80;;;;;;5035054;28;20175;-72
2022/05/15 07:29:16;;;;;;;0.30;0.30;;;37.40;37.80;;;;;;5034939;28;20191;-71
2022/05/15 07:31:43;;;;;;;0.40;0.40;;;38.60;37.30;;;;;;5034927;28;20437;-72
2022/05/15 07:34:09;;;;;;;0.30;0.30;;;39.30;34.00;;;;;;5034770;28;20417;-70
2022/05/15 07:36:35;;;;;;;0.30;0.30;;;39.70;31.10;;;;;;5035012;28;20408;-71
2022/05/15 07:39:01;;;;;;;0.40;0.40;;;38.90;31.50;;;;;;5035423;28;20429;-71
2022/05/15 07:41:27;;;;;;;0.50;0.40;;;38.20;30.60;;;;;;5034784;28;20402;-71
2022/05/15 07:43:52;;;;;;;0.30;0.30;;;37.80;31.60;;;;;;5033297;28;20537;-72
2022/05/15 07:46:18;;;;;;;0.40;0.30;;;37.50;30.90;;;;;;5034759;28;20163;-73
2022/05/15 07:48:44;;;;;;;0.40;0.30;;;36.10;33.40;;;;;;5034456;28;20191;-72
2022/05/15 07:51:09;;;;;;;0.37;0.30;;;35.90;32.70;;;;;;5034486;28;20181;-71
2022/05/15 07:53:39;;;;;;;0.40;0.30;;;36.00;31.50;;;;;;5034285;28;20266;-72
2022/05/15 07:56:09;;;;;;;1.70;1.30;;;35.30;32.40;;;;;;5034476;28;20225;-71
2022/05/15 07:58:36;;;;;;;0.60;0.50;;;34.80;32.30;;;;;;5034476;28;20449;-70
2022/05/15 08:01:04;;;;;;;0.30;0.30;;;34.90;33.70;;;;;;5034190;28;20492;-72
2022/05/15 08:03:33;;;;;;;0.50;0.50;;;34.90;34.20;;;;;;5034222;28;20402;-72
2022/05/15 08:08:44;;;;;;;0.40;0.40;;;35.60;32.10;;;;;;5033904;28;20503;-71
2022/05/15 08:11:10;;;;;;;0.50;0.50;;;34.30;33.80;;;;;;5034254;28;20917;-71
2022/05/15 08:13:36;;;;;;;0.40;0.30;;;33.90;33.60;;;;;;5033716;28;20547;-73
2022/05/15 08:16:01;;;;;;;1.43;1.07;;;34.70;34.80;;;;;;5033941;28;20632;-71
2022/05/15 08:23:59;;;;;;;0.90;0.90;;;35.00;32.50;;;;;;5034640;28;20405;-72
2022/05/15 08:26:25;;;;;;;0.50;0.50;;;34.80;35.20;;;;;;5034572;28;20764;-72
2022/05/15 08:28:51;;;;;;;0.40;0.40;;;34.90;33.10;;;;;;5034075;28;20448;-72
2022/05/15 08:31:19;;;;;;;0.30;0.30;;;35.40;33.70;;;;;;5034218;28;20757;-71
2022/05/15 08:33:45;;;;;;;0.30;0.30;;;35.90;32.60;;;;;;5033576;28;20413;-70
2022/05/15 08:36:11;;;;;;;0.50;0.50;;;36.60;32.20;;;;;;5034158;28;20405;-72
2022/05/15 08:38:37;;;;;;;0.40;0.40;;;36.20;33.30;;;;;;5033012;28;20429;-71
2022/05/15 08:41:13;;;;;;;0.70;0.70;;;35.90;32.70;;;;;;5032360;28;20230;-70
2022/05/15 08:43:46;;;;;;;0.40;0.40;;;36.30;31.20;;;;;;5032470;28;20409;-71
2022/05/15 08:46:34;;;;;;;0.40;0.30;;;36.80;31.50;;;;;;5033244;28;20413;-71
2022/05/15 08:49:11;;;;;;;0.90;0.90;;;37.70;30.90;;;;;;5033439;28;20425;-72
2022/05/15 08:52:02;;;;;;;0.40;0.30;;;38.30;29.50;;;;;;5033702;28;20872;-73
2022/05/15 08:54:29;;;;;;;0.40;0.40;;;37.30;30.10;;;;;;5030531;28;20429;-73
2022/05/15 08:56:55;;;;;;;0.50;0.50;;;37.30;31.90;;;;;;5033713;28;20437;-71
2022/05/15 08:59:30;;;;;;;0.50;0.50;;;37.00;30.00;;;;;;5033417;28;20955;-72
2022/05/15 09:01:58;;;;;;;0.40;0.40;;;36.90;30.50;;;;;;5033628;28;20459;-70
2022/05/15 09:04:25;;;;;;;0.37;0.30;;;36.30;31.80;;;;;;5033461;28;20833;-72
2022/05/15 09:07:14;;;;;;;0.60;0.60;;;36.30;32.80;;;;;;5032175;28;20414;-72
2022/05/15 09:09:55;;;;;;;0.60;0.60;;;36.10;32.40;;;;;;5033482;28;20402;-71
2022/05/15 09:12:24;;;;;;;0.40;0.40;;;36.30;32.20;;;;;;5033340;28;20405;-71
2022/05/15 09:14:59;;;;;;;0.40;0.30;;;36.20;32.00;;;;;;5037609;28;20932;-71
2022/05/15 09:17:43;;;;;;;0.40;0.30;;;35.90;33.40;;;;;;5037442;28;20409;-70
2022/05/15 09:20:18;;;;;;;0.70;0.70;;;35.80;31.90;;;;;;5037284;28;20486;-70
2022/05/15 09:22:57;;;;;;;0.40;0.40;;;36.70;31.40;;;;;;5037266;28;20486;-71
2022/05/15 09:25:25;;;;;;;0.67;0.67;;;37.10;30.90;;;;;;5036924;28;20781;-70
2022/05/15 09:28:01;;;;;;;0.50;0.50;;;37.80;30.50;;;;;;5037178;28;20425;-71
2022/05/15 09:30:33;;;;;;;0.90;0.57;;;37.80;30.10;;;;;;5036709;28;20913;-72
2022/05/15 09:32:59;;;;;;;0.30;0.30;;;37.00;30.40;;;;;;5037289;28;20459;-72
2022/05/15 09:35:36;;;;;;;0.40;0.40;;;36.10;31.80;;;;;;5037773;28;20413;-72
2022/05/15 09:43:35;;;;;;;0.40;0.30;;;34.60;32.60;;;;;;5036835;28;20408;-70
2022/05/15 09:46:18;;;;;;;0.37;0.30;;;34.40;33.40;;;;;;5037408;28;20496;-69
2022/05/15 09:49:00;;;;;;;0.50;0.50;;;34.10;33.50;;;;;;5035834;28;20519;-71
2022/05/15 09:51:30;;;;;;;0.40;0.40;;;34.30;34.30;;;;;;5037153;28;20414;-70
2022/05/15 09:53:57;;;;;;;0.40;0.30;;;34.40;34.30;;;;;;5036050;28;20408;-70
2022/05/15 09:56:33;;;;;;;0.47;0.47;;;33.90;35.40;;;;;;5036222;28;20811;-72
2022/05/15 09:59:11;;;;;;;2.50;1.33;;;33.80;34.10;;;;;;5036627;28;20444;-72
2022/05/15 10:01:48;;;;;;;0.70;0.70;;;33.20;35.30;;;;;;5036831;28;20964;-72
2022/05/15 10:04:26;;;;;;;0.40;0.40;;;33.10;35.20;;;;;;5036153;28;20483;-70
2022/05/15 10:06:58;;;;;;;0.97;0.97;;;32.90;35.10;;;;;;5035405;28;20428;-70
2022/05/15 10:09:27;;;;;;;0.30;0.30;;;32.60;35.80;;;;;;5035893;28;20421;-71
2022/05/15 10:11:59;;;;;;;1.87;1.70;;;32.50;36.20;;;;;;5036494;28;20401;-70
2022/05/15 10:14:31;;;;;;;0.50;0.50;;;32.30;35.80;;;;;;5036405;28;20402;-71
2022/05/15 10:16:58;;;;;;;0.40;0.30;;;32.40;36.80;;;;;;5035196;28;20422;-70
2022/05/15 10:19:33;;;;;;;0.30;0.30;;;32.00;36.10;;;;;;5036033;28;20445;-72
2022/05/15 10:22:33;;;;;;;0.40;0.40;;;31.80;36.50;;;;;;5036275;28;20460;-70
2022/05/15 10:25:19;;;;;;;0.50;0.50;;;31.10;36.40;;;;;;5034807;28;20421;-70
2022/05/15 10:28:07;;;;;;;0.50;0.50;;;31.40;37.50;;;;;;5036525;28;20763;-70
2022/05/15 10:30:43;;;;;;;2.20;2.10;;;31.80;36.50;;;;;;5036368;28;20884;-72
2022/05/15 10:33:16;;;;;;;0.50;0.50;;;31.80;37.20;;;;;;5036027;28;20420;-72
2022/05/15 10:36:09;;;;;;;0.47;0.47;;;31.50;36.60;;;;;;5036243;28;20397;-71
2022/05/15 10:38:59;;;;;;;0.40;0.40;;;31.80;38.90;;;;;;5025853;28;20527;-71
2022/05/15 10:41:39;;;;;;;0.50;0.50;;;32.10;37.80;;;;;;5036034;28;20536;-70
2022/05/15 10:44:23;;;;;;;0.30;0.30;;;31.90;34.40;;;;;;5035733;28;20405;-70
2022/05/15 10:47:07;;;;;;;0.30;0.30;;;31.50;35.90;;;;;;5036324;28;20792;-69
2022/05/15 10:49:44;;;;;;;0.33;0.33;;;31.20;36.20;;;;;;5035902;28;20418;-70
2022/05/15 10:52:27;;;;;;;0.30;0.30;;;31.20;36.60;;;;;;5035776;28;20794;-70
2022/05/15 10:58:02;;;;;;;0.40;0.40;;;30.40;38.30;;;;;;5035771;28;20470;-71
2022/05/15 11:00:46;;;;;;;0.30;0.30;;;29.60;39.90;;;;;;5034407;28;20414;-71
2022/05/15 11:03:31;;;;;;;0.30;0.30;;;28.80;42.00;;;;;;5035646;28;20411;-71
2022/05/15 11:06:05;;;;;;;0.40;0.40;;;28.10;40.10;;;;;;5035509;28;20394;-71
2022/05/15 11:08:39;;;;;;;0.40;0.40;;;27.90;40.20;;;;;;5035340;28;20417;-70
2022/05/15 11:11:19;;;;;;;0.30;0.30;;;27.90;43.20;;;;;;5035421;28;20800;-70
2022/05/15 11:14:01;;;;;;;0.30;0.30;;;28.00;41.50;;;;;;5035284;28;20402;-71
2022/05/15 11:16:52;;;;;;;0.50;0.50;;;28.00;40.60;;;;;;5035505;28;20433;-70
2022/05/15 11:19:35;;;;;;;0.30;0.30;;;27.70;43.90;;;;;;5035045;28;20421;-71
2022/05/15 11:22:12;;;;;;;0.30;0.30;;;27.60;42.00;;;;;;5035218;28;20480;-71
2022/05/15 11:24:55;;;;;;;0.30;0.30;;;27.40;41.40;;;;;;5033904;28;20468;-72
2022/05/15 11:27:43;;;;;;;0.30;0.30;;;26.90;42.30;;;;;;5035116;28;20513;-71
2022/05/15 11:30:21;;;;;;;0.40;0.40;;;27.00;42.80;;;;;;5034974;28;20756;-72
2022/05/15 11:32:47;;;;;;;0.50;0.50;;;27.40;45.40;;;;;;5034870;28;20488;-71
2022/05/15 11:35:18;;;;;;;0.30;0.30;;;27.20;41.70;;;;;;5034565;28;20501;-72
2022/05/15 11:37:56;;;;;;;0.40;0.40;;;27.20;41.40;;;;;;5034759;28;20186;-71
2022/05/15 11:40:45;;;;;;;0.30;0.30;;;27.00;42.70;;;;;;5034792;28;20492;-71
2022/05/15 11:43:26;;;;;;;0.40;0.40;;;27.30;45.40;;;;;;5034682;28;20418;-70
2022/05/15 11:45:55;;;;;;;0.50;0.50;;;27.30;44.90;;;;;;5034820;28;20397;-72
2022/05/15 11:48:24;;;;;;;0.30;0.30;;;27.30;45.20;;;;;;5034738;28;20460;-72
2022/05/15 11:51:22;;;;;;;0.37;0.37;;;27.20;45.90;;;;;;5034595;28;20515;-72
2022/05/15 11:53:48;;;;;;;0.40;0.40;;;27.40;45.80;;;;;;5034550;28;20406;-73
2022/05/15 11:56:23;;;;;;;0.30;0.30;;;27.30;44.90;;;;;;5034654;28;20794;-71
2022/05/15 11:59:01;;;;;;;0.43;0.43;;;27.00;44.20;;;;;;5034590;28;20186;-70
2022/05/15 12:01:38;;;;;;;1.07;0.70;;;26.80;44.80;;;;;;5034383;28;20469;-71
2022/05/15 12:04:07;;;;;;;0.30;0.30;;;26.70;45.30;;;;;;5034255;28;20405;-73
2022/05/15 12:07:09;;;;;;;0.37;0.37;;;26.40;45.40;;;;;;5034423;28;20398;-71
2022/05/15 12:09:39;;;;;;;0.30;0.30;;;26.30;45.90;;;;;;5034015;28;20520;-71
2022/05/15 12:12:31;;;;;;;0.50;0.50;;;26.20;48.10;;;;;;5032896;28;20421;-72
2022/05/15 12:15:16;;;;;;;0.33;0.33;;;26.40;46.90;;;;;;5024108;28;20500;-73
2022/05/15 12:18:01;;;;;;;0.80;0.47;;;26.60;45.40;;;;;;5034062;28;20429;-72
2022/05/15 12:20:29;;;;;;;0.97;0.97;;;26.50;47.40;;;;;;5033865;28;20511;-73
2022/05/15 12:23:16;;;;;;;1.07;0.97;;;26.50;45.60;;;;;;5033768;28;20915;-72
2022/05/15 12:26:15;;;;;;;0.40;0.40;;;26.50;45.00;;;;;;5034249;28;20402;-71
2022/05/15 12:28:53;;;;;;;0.40;0.40;;;26.60;44.30;;;;;;5033822;28;20445;-72
2022/05/15 12:31:21;;;;;;;0.30;0.30;;;26.70;43.40;;;;;;5034199;28;20405;-71
2022/05/15 12:33:48;;;;;;;0.30;0.30;;;26.80;43.20;;;;;;5033834;28;20473;-71
2022/05/15 12:36:35;;;;;;;0.30;0.30;;;26.50;43.10;;;;;;5032723;28;20911;-72
2022/05/15 12:39:03;;;;;;;0.50;0.50;;;26.50;46.30;;;;;;5033757;28;20428;-73
2022/05/15 12:41:36;;;;;;;0.50;0.50;;;26.40;47.20;;;;;;5033837;28;20499;-72
2022/05/15 12:44:05;;;;;;;0.47;0.40;;;26.60;45.60;;;;;;5033730;28;20761;-72
2022/05/15 12:46:37;;;;;;;0.40;0.40;;;26.60;44.70;;;;;;5033784;28;20416;-72
2022/05/15 12:49:05;;;;;;;0.57;0.57;;;26.60;45.00;;;;;;5033781;28;20424;-73
2022/05/15 12:51:37;;;;;;;0.30;0.30;;;26.70;44.40;;;;;;5033825;28;20428;-71
2022/05/15 12:54:19;;;;;;;0.30;0.30;;;26.90;47.10;;;;;;5033487;28;20416;-72
2022/05/15 12:56:45;;;;;;;0.67;0.67;;;26.70;44.80;;;;;;5033667;28;20401;-73
2022/05/15 12:59:17;;;;;;;0.43;0.43;;;26.60;44.60;;;;;;5033471;28;20971;-72
2022/05/15 13:01:45;;;;;;;0.40;0.40;;;26.60;44.00;;;;;;5033611;28;20222;-71
2022/05/15 13:04:17;;;;;;;0.30;0.30;;;26.60;45.10;;;;;;5033196;28;20398;-74
2022/05/15 13:06:50;;;;;;;0.50;0.50;;;26.50;43.40;;;;;;5033802;28;20408;-73
2022/05/15 13:09:23;;;;;;;0.60;0.50;;;26.40;43.90;;;;;;5033317;28;20396;-72
2022/05/15 13:11:54;;;;;;;0.30;0.30;;;26.40;45.60;;;;;;5033601;28;20381;-72
2022/05/15 13:14:39;;;;;;;0.50;0.50;;;26.40;42.50;;;;;;5033238;28;20995;-72
2022/05/15 13:17:06;;;;;;;0.30;0.30;;;26.40;43.10;;;;;;5033607;28;20493;-72
2022/05/15 13:19:45;;;;;;;0.40;0.40;;;26.60;42.90;;;;;;5033178;28;20445;-71
2022/05/15 13:22:22;;;;;;;0.30;0.30;;;26.80;42.30;;;;;;5032838;28;20459;-72
2022/05/15 13:24:52;;;;;;;0.30;0.30;;;26.90;42.60;;;;;;5033732;28;20405;-72
2022/05/15 13:27:18;;;;;;;0.30;0.30;;;26.90;44.90;;;;;;5033251;28;20402;-72